createdAt,value
2019-04-28T00:00:51.258Z,99.90
2019-04-28T00:06:07.848Z,99.90
2019-04-28T00:08:37.568Z,99.90
2019-04-28T00:11:07.328Z,99.90
2019-04-28T00:13:36.040Z,99.90
2019-04-28T00:16:23.833Z,99.90
2019-04-28T00:18:55.307Z,99.90
2019-04-28T00:21:34.855Z,99.90
2019-04-28T00:24:08.155Z,99.90
2019-04-28T00:26:41.148Z,99.90
2019-04-28T00:31:57.739Z,99.90
2019-04-28T00:34:26.691Z,99.90
2019-04-28T00:36:57.078Z,99.90
2019-04-28T00:39:26.032Z,99.90
2019-04-28T00:41:54.842Z,99.90
2019-04-28T00:44:24.669Z,99.90
2019-04-28T00:46:55.295Z,99.90
2019-04-28T00:49:43.537Z,99.90
2019-04-28T00:52:13.100Z,99.90
2019-04-28T00:54:42.082Z,99.90
2019-04-28T00:57:11.296Z,99.90
2019-04-28T00:59:52.027Z,99.90
2019-04-28T01:02:28.403Z,99.90
2019-04-28T01:04:56.830Z,99.90
2019-04-28T01:07:25.241Z,99.90
2019-04-28T01:09:53.922Z,99.90
2019-04-28T01:12:31.284Z,99.90
2019-04-28T01:15:01.737Z,99.90
2019-04-28T01:17:31.522Z,99.90
2019-04-28T01:20:01.876Z,99.90
2019-04-28T01:22:30.261Z,99.90
2019-04-28T01:24:59.595Z,99.90
2019-04-28T01:27:30.379Z,99.90
2019-04-28T01:30:08.364Z,99.90
2019-04-28T01:32:43.709Z,99.90
2019-04-28T01:35:12.488Z,99.90
2019-04-28T01:37:41.181Z,99.90
2019-04-28T01:40:09.719Z,99.90
2019-04-28T01:42:38.110Z,99.90
2019-04-28T01:45:07.161Z,99.90
2019-04-28T01:47:35.833Z,99.90
2019-04-28T01:50:20.507Z,99.90
2019-04-28T01:52:52.112Z,99.90
2019-04-28T01:55:20.582Z,99.90
2019-04-28T01:57:50.932Z,99.90
2019-04-28T02:00:25.380Z,99.90
2019-04-28T02:02:50.600Z,99.90
2019-04-28T02:05:19.705Z,99.90
2019-04-28T02:07:48.206Z,99.90
2019-04-28T02:10:16.613Z,99.90
2019-04-28T02:12:45.259Z,99.90
2019-04-28T02:15:14.051Z,99.90
2019-04-28T02:17:42.631Z,99.90
2019-04-28T02:20:11.170Z,99.90
2019-04-28T02:22:50.113Z,99.90
2019-04-28T02:25:19.585Z,99.90
2019-04-28T02:27:49.946Z,99.90
2019-04-28T02:30:20.286Z,99.90
2019-04-28T02:32:51.573Z,99.90
2019-04-28T02:35:21.174Z,99.90
2019-04-28T02:37:50.384Z,99.90
2019-04-28T02:40:20.747Z,99.90
2019-04-28T02:42:51.917Z,99.90
2019-04-28T02:45:21.810Z,99.90
2019-04-28T02:47:52.367Z,99.90
2019-04-28T02:50:22.526Z,99.90
2019-04-28T02:53:04.447Z,99.90
2019-04-28T02:55:33.523Z,99.90
2019-04-28T02:58:01.945Z,99.90
2019-04-28T03:00:31.724Z,99.90
2019-04-28T03:03:01.351Z,99.90
2019-04-28T03:05:32.992Z,99.90
2019-04-28T03:08:01.045Z,99.90
2019-04-28T03:10:31.045Z,99.90
2019-04-28T03:13:01.257Z,99.90
2019-04-28T03:15:30.453Z,99.90
2019-04-28T03:18:01.764Z,99.90
2019-04-28T03:20:30.540Z,99.90
2019-04-28T03:23:00.957Z,99.90
2019-04-28T03:25:40.939Z,99.90
2019-04-28T03:28:30.826Z,99.90
2019-04-28T03:31:36.841Z,99.90
2019-04-28T03:33:43.439Z,99.90
2019-04-28T03:36:08.675Z,99.90
2019-04-28T03:38:37.503Z,99.90
2019-04-28T03:41:06.208Z,99.90
2019-04-28T03:43:34.703Z,99.90
2019-04-28T03:46:04.744Z,99.90
2019-04-28T03:48:33.729Z,99.90
2019-04-28T03:51:02.421Z,99.90
2019-04-28T03:53:31.407Z,99.90
2019-04-28T03:56:01.566Z,99.90
2019-04-28T03:58:31.115Z,99.90
2019-04-28T04:01:02.724Z,99.90
2019-04-28T04:03:30.617Z,99.90
2019-04-28T04:06:00.832Z,99.90
2019-04-28T04:08:30.893Z,99.90
2019-04-28T04:11:20.187Z,99.90
2019-04-28T04:13:51.356Z,99.90
2019-04-28T04:16:33.734Z,99.90
2019-04-28T04:19:03.996Z,99.90
2019-04-28T04:21:32.728Z,99.90
2019-04-28T04:24:01.345Z,99.90
2019-04-28T04:26:32.839Z,99.90
2019-04-28T04:29:01.083Z,99.90
2019-04-28T04:31:31.727Z,99.90
2019-04-28T04:34:02.618Z,99.90
2019-04-28T04:36:31.159Z,99.90
2019-04-28T04:39:01.878Z,99.90
2019-04-28T04:41:30.624Z,99.90
2019-04-28T04:44:01.180Z,99.90
2019-04-28T04:46:31.389Z,99.90
2019-04-28T04:49:00.896Z,99.90
2019-04-28T04:51:30.613Z,99.90
2019-04-28T04:54:01.151Z,99.90
2019-04-28T04:56:30.473Z,99.90
2019-04-28T04:59:02.227Z,99.90
2019-04-28T05:01:47.465Z,99.90
2019-04-28T05:04:24.502Z,99.90
2019-04-28T05:06:52.997Z,99.90
2019-04-28T05:09:22.237Z,99.90
2019-04-28T05:11:50.789Z,99.90
2019-04-28T05:14:19.984Z,99.90
2019-04-28T05:16:49.719Z,99.90
2019-04-28T05:19:19.878Z,99.90
2019-04-28T05:21:49.860Z,99.90
2019-04-28T05:24:20.262Z,99.90
2019-04-28T05:26:51.406Z,99.90
2019-04-28T05:29:26.417Z,99.90
2019-04-28T05:31:50.456Z,99.90
2019-04-28T05:34:20.511Z,99.90
2019-04-28T05:36:50.488Z,99.90
2019-04-28T05:39:19.632Z,99.90
2019-04-28T05:41:50.275Z,99.90
2019-04-28T05:44:20.189Z,99.90
2019-04-28T05:46:50.559Z,99.90
2019-04-28T05:49:39.690Z,99.90
2019-04-28T05:52:11.933Z,99.90
2019-04-28T05:54:50.743Z,99.90
2019-04-28T05:57:20.818Z,99.90
2019-04-28T05:59:53.863Z,99.90
2019-04-28T06:02:53.431Z,99.90
2019-04-28T06:05:10.790Z,99.90
2019-04-28T06:07:43.666Z,99.90
2019-04-28T06:10:12.474Z,99.90
2019-04-28T06:12:41.103Z,99.90
2019-04-28T06:15:11.699Z,99.90
2019-04-28T06:17:40.239Z,99.90
2019-04-28T06:20:10.157Z,99.90
2019-04-28T06:22:39.489Z,99.90
2019-04-28T06:25:08.192Z,99.90
2019-04-28T06:27:36.840Z,99.90
2019-04-28T06:30:08.226Z,99.90
2019-04-28T06:32:36.759Z,99.90
2019-04-28T06:35:09.066Z,99.90
2019-04-28T06:37:37.434Z,99.90
2019-04-28T06:40:07.093Z,99.90
2019-04-28T06:42:35.901Z,99.90
2019-04-28T06:45:06.151Z,99.90
2019-04-28T06:47:35.508Z,99.90
2019-04-28T06:50:05.042Z,99.90
2019-04-28T06:52:33.680Z,99.90
2019-04-28T06:55:02.075Z,99.90
2019-04-28T06:57:30.538Z,99.90
2019-04-28T06:59:59.011Z,99.90
2019-04-28T07:02:27.634Z,99.90
2019-04-28T07:05:01.934Z,99.90
2019-04-28T07:07:26.358Z,99.90
2019-04-28T07:09:54.998Z,99.90
2019-04-28T07:12:23.402Z,99.90
2019-04-28T07:14:52.054Z,99.90
2019-04-28T07:17:20.498Z,99.90
2019-04-28T07:19:50.555Z,99.90
2019-04-28T07:22:23.173Z,99.90
2019-04-28T07:24:51.867Z,99.90
2019-04-28T07:27:20.474Z,99.90
2019-04-28T07:29:48.873Z,99.90
2019-04-28T07:32:17.338Z,99.90
2019-04-28T07:34:45.777Z,99.90
2019-04-28T07:37:14.182Z,99.90
2019-04-28T07:39:42.589Z,99.90
2019-04-28T07:42:11.015Z,99.90
2019-04-28T07:44:39.398Z,99.90
2019-04-28T07:47:07.806Z,99.90
2019-04-28T07:49:36.208Z,99.90
2019-04-28T07:52:09.215Z,99.90
2019-04-28T07:54:40.040Z,99.90
2019-04-28T07:57:08.014Z,99.90
2019-04-28T07:59:36.416Z,99.90
2019-04-28T08:02:05.003Z,99.90
2019-04-28T08:04:33.641Z,99.90
2019-04-28T08:07:02.266Z,99.90
2019-04-28T08:09:34.723Z,99.90
2019-04-28T08:12:03.430Z,99.90
2019-04-28T08:14:32.060Z,99.90
2019-04-28T08:17:00.461Z,99.90
2019-04-28T08:19:28.858Z,99.90
2019-04-28T08:21:57.260Z,99.90
2019-04-28T08:24:25.684Z,99.90
2019-04-28T08:26:54.136Z,99.90
2019-04-28T08:29:22.597Z,99.90
2019-04-28T08:31:52.962Z,99.90
2019-04-28T08:34:22.963Z,99.90
2019-04-28T08:36:53.367Z,99.90
2019-04-28T08:39:24.091Z,99.90
2019-04-28T08:41:51.983Z,99.90
2019-04-28T08:44:20.478Z,99.90
2019-04-28T08:46:48.884Z,99.90
2019-04-28T08:49:17.285Z,99.90
2019-04-28T08:51:45.693Z,99.90
2019-04-28T08:54:14.100Z,99.90
2019-04-28T08:56:42.498Z,99.90
2019-04-28T08:59:11.310Z,99.90
2019-04-28T09:01:39.783Z,99.90
2019-04-28T09:04:15.208Z,99.90
2019-04-28T09:06:38.660Z,99.90
2019-04-28T09:09:08.759Z,99.90
2019-04-28T09:11:45.030Z,99.90
2019-04-28T09:14:13.456Z,99.90
2019-04-28T09:16:41.853Z,99.90
2019-04-28T09:19:10.500Z,99.90
2019-04-28T09:21:38.919Z,99.90
2019-04-28T09:24:07.359Z,99.90
2019-04-28T09:26:37.085Z,99.90
2019-04-28T09:29:05.670Z,99.90
2019-04-28T09:31:34.074Z,99.90
2019-04-28T09:34:02.485Z,99.90
2019-04-28T09:36:30.963Z,99.90
2019-04-28T09:38:59.613Z,99.90
2019-04-28T09:41:33.004Z,99.90
2019-04-28T09:44:05.908Z,99.90
2019-04-28T09:46:36.446Z,99.90
2019-04-28T09:49:05.191Z,99.90
2019-04-28T09:51:33.814Z,99.90
2019-04-28T09:54:03.870Z,99.90
2019-04-28T09:56:32.468Z,99.90
2019-04-28T09:59:03.466Z,99.90
2019-04-28T10:01:37.877Z,97.10
2019-04-28T10:04:09.254Z,93.80
2019-04-28T10:06:39.508Z,94.60
2019-04-28T10:09:09.472Z,93.10
2019-04-28T10:11:38.103Z,94.50
2019-04-28T10:14:07.079Z,95.30
2019-04-28T10:16:35.693Z,97.70
2019-04-28T10:19:04.696Z,99.20
2019-04-28T10:21:35.358Z,97.60
2019-04-28T10:24:03.860Z,98.30
2019-04-28T10:26:35.095Z,98.50
2019-04-28T10:29:03.761Z,99.90
2019-04-28T10:31:32.553Z,99.90
2019-04-28T10:34:02.726Z,99.90
2019-04-28T10:36:34.631Z,99.90
2019-04-28T10:39:18.108Z,99.90
2019-04-28T10:41:48.888Z,99.90
2019-04-28T10:44:17.921Z,99.90
2019-04-28T10:46:48.650Z,99.90
2019-04-28T10:49:19.131Z,99.90
2019-04-28T10:51:59.047Z,99.90
2019-04-28T10:54:24.353Z,99.90
2019-04-28T10:56:53.147Z,99.90
2019-04-28T10:59:23.008Z,99.80
2019-04-28T11:01:51.766Z,95.90
2019-04-28T11:04:39.469Z,91.10
2019-04-28T11:07:11.610Z,92.30
2019-04-28T11:09:45.107Z,94.00
2019-04-28T11:12:16.584Z,90.80
2019-04-28T11:14:55.012Z,93.50
2019-04-28T11:17:29.561Z,91.80
2019-04-28T11:20:02.695Z,91.90
2019-04-28T11:22:45.374Z,92.90
2019-04-28T11:25:17.649Z,94.70
2019-04-28T11:27:48.952Z,91.10
2019-04-28T11:30:19.568Z,93.60
2019-04-28T11:32:58.713Z,94.80
2019-04-28T11:35:32.018Z,91.90
2019-04-28T11:38:03.241Z,92.70
2019-04-28T11:40:33.454Z,93.80
2019-04-28T11:43:05.681Z,92.00
2019-04-28T11:45:34.237Z,91.90
2019-04-28T11:48:05.746Z,88.00
2019-04-28T11:50:35.955Z,84.20
2019-04-28T11:53:06.030Z,89.30
2019-04-28T11:55:37.649Z,83.20
2019-04-28T11:58:09.103Z,99.90
2019-04-28T12:00:40.468Z,99.90
2019-04-28T12:03:08.961Z,99.90
2019-04-28T12:05:43.953Z,99.90
2019-04-28T12:08:12.710Z,99.90
2019-04-28T12:10:45.911Z,99.90
2019-04-28T12:13:31.339Z,99.90
2019-04-28T12:16:19.779Z,99.90
2019-04-28T12:18:53.485Z,99.90
2019-04-28T12:21:25.180Z,99.90
2019-04-28T12:23:57.656Z,99.90
2019-04-28T12:26:26.450Z,99.90
2019-04-28T12:29:09.299Z,99.90
2019-04-28T12:31:43.983Z,99.90
2019-04-28T12:34:15.322Z,99.90
2019-04-28T12:36:44.000Z,99.90
2019-04-28T12:39:12.946Z,99.90
2019-04-28T12:41:41.995Z,99.90
2019-04-28T12:44:10.723Z,99.90
2019-04-28T12:46:45.072Z,99.90
2019-04-28T12:55:02.361Z,99.90
2019-04-28T12:57:37.154Z,99.90
2019-04-28T13:00:18.476Z,99.90
2019-04-28T13:03:00.110Z,99.90
2019-04-28T13:05:28.772Z,99.90
2019-04-28T13:07:57.208Z,99.90
2019-04-28T13:10:25.759Z,99.90
2019-04-28T13:12:54.207Z,99.90
2019-04-28T13:15:23.181Z,99.90
2019-04-28T13:17:53.215Z,99.90
2019-04-28T13:20:21.632Z,99.90
2019-04-28T13:22:50.525Z,99.90
2019-04-28T13:25:18.962Z,99.90
2019-04-28T13:27:49.080Z,99.90
2019-04-28T13:30:17.862Z,99.90
2019-04-28T13:32:46.525Z,99.90
2019-04-28T13:35:15.499Z,99.90
2019-04-28T13:37:44.384Z,99.90
2019-04-28T13:40:26.615Z,99.90
2019-04-28T13:42:55.013Z,99.90
2019-04-28T13:45:25.293Z,99.90
2019-04-28T13:47:53.707Z,99.90
2019-04-28T13:50:30.332Z,99.90
2019-04-28T13:52:58.885Z,99.90
2019-04-28T13:55:29.253Z,99.90
2019-04-28T13:57:59.304Z,99.60
2019-04-28T14:00:45.901Z,99.90
2019-04-28T14:03:15.979Z,99.90
2019-04-28T14:05:46.062Z,99.90
2019-04-28T14:08:14.557Z,99.90
2019-04-28T14:10:43.024Z,96.10
2019-04-28T14:13:11.526Z,97.40
2019-04-28T14:15:39.973Z,99.90
2019-04-28T14:18:08.454Z,99.90
2019-04-28T14:20:37.276Z,98.20
2019-04-28T14:23:05.690Z,97.80
2019-04-28T14:25:34.185Z,97.20
2019-04-28T14:28:02.664Z,98.90
2019-04-28T14:30:31.138Z,99.90
2019-04-28T14:32:59.556Z,99.90
2019-04-28T14:35:28.046Z,99.90
2019-04-28T14:37:56.684Z,99.90
2019-04-28T14:40:25.173Z,99.90
2019-04-28T14:42:53.845Z,98.20
2019-04-28T14:45:22.535Z,99.90
2019-04-28T14:47:51.150Z,99.90
2019-04-28T14:50:19.562Z,99.90
2019-04-28T14:52:48.192Z,99.90
2019-04-28T14:55:16.860Z,99.90
2019-04-28T14:57:54.835Z,97.40
2019-04-28T15:00:30.673Z,97.50
2019-04-28T15:03:00.990Z,97.90
2019-04-28T15:05:31.018Z,97.30
2019-04-28T15:08:01.138Z,97.10
2019-04-28T15:10:31.226Z,99.00
2019-04-28T15:13:00.135Z,95.20
2019-04-28T15:15:28.583Z,96.90
2019-04-28T15:17:57.081Z,98.60
2019-04-28T15:20:28.753Z,99.90
2019-04-28T15:22:57.321Z,99.60
2019-04-28T15:25:25.726Z,99.90
2019-04-28T15:27:54.407Z,99.90
2019-04-28T15:30:22.831Z,99.90
2019-04-28T15:32:51.310Z,99.70
2019-04-28T15:35:19.968Z,99.90
2019-04-28T15:37:48.401Z,99.90
2019-04-28T15:40:16.825Z,99.90
2019-04-28T15:42:45.260Z,99.90
2019-04-28T15:45:13.936Z,99.90
2019-04-28T15:47:42.785Z,99.90
2019-04-28T15:50:11.931Z,99.90
2019-04-28T15:52:40.450Z,99.90
2019-04-28T15:55:10.668Z,99.90
2019-04-28T15:57:39.092Z,99.90
2019-04-28T16:00:09.731Z,98.90
2019-04-28T16:02:38.151Z,98.00
2019-04-28T16:05:08.579Z,98.00
2019-04-28T16:07:48.900Z,98.10
2019-04-28T16:10:17.607Z,99.90
2019-04-28T16:12:46.029Z,99.90
2019-04-28T16:15:14.751Z,99.90
2019-04-28T16:17:43.399Z,99.90
2019-04-28T16:20:12.246Z,99.90
2019-04-28T16:22:40.724Z,99.90
2019-04-28T16:25:09.476Z,99.90
2019-04-28T16:27:42.098Z,99.90
2019-04-28T16:30:10.853Z,99.90
2019-04-28T16:32:39.277Z,99.90
2019-04-28T16:35:07.923Z,99.90
2019-04-28T16:37:38.824Z,99.90
2019-04-28T16:40:09.586Z,99.90
2019-04-28T16:42:37.020Z,99.90
2019-04-28T16:45:06.950Z,99.90
2019-04-28T16:47:35.626Z,99.10
2019-04-28T16:50:07.605Z,99.90
2019-04-28T16:52:36.018Z,99.90
2019-04-28T16:55:16.608Z,99.90
2019-04-28T16:58:03.244Z,99.90
2019-04-28T17:00:33.270Z,99.90
2019-04-28T17:03:01.681Z,99.90
2019-04-28T17:05:30.432Z,99.90
2019-04-28T17:07:58.838Z,99.90
2019-04-28T17:10:27.302Z,99.90
2019-04-28T17:12:55.974Z,99.90
2019-04-28T17:15:24.393Z,99.90
2019-04-28T17:17:53.436Z,99.90
2019-04-28T17:20:21.851Z,99.90
2019-04-28T17:22:50.243Z,99.90
2019-04-28T17:25:18.909Z,99.90
2019-04-28T17:27:47.403Z,99.90
2019-04-28T17:30:17.425Z,99.90
2019-04-28T17:32:45.872Z,99.90
2019-04-28T17:35:15.098Z,99.90
2019-04-28T17:37:43.754Z,99.90
2019-04-28T17:40:13.822Z,99.90
2019-04-28T17:42:42.450Z,99.90
2019-04-28T17:45:10.997Z,99.90
2019-04-28T17:47:39.728Z,99.90
2019-04-28T17:50:08.841Z,99.90
2019-04-28T17:52:37.650Z,99.90
2019-04-28T17:55:06.753Z,99.90
2019-04-28T17:57:35.538Z,99.90
2019-04-28T18:00:13.829Z,99.90
2019-04-28T18:03:01.557Z,99.90
2019-04-28T18:05:40.762Z,99.90
2019-04-28T18:08:20.424Z,99.90
2019-04-28T18:10:42.250Z,99.90
2019-04-28T18:13:10.787Z,99.90
2019-04-28T18:15:46.845Z,99.90
2019-04-28T18:18:16.946Z,99.90
2019-04-28T18:20:47.429Z,99.90
2019-04-28T18:23:16.710Z,99.90
2019-04-28T18:25:45.478Z,99.90
2019-04-28T18:28:13.900Z,99.90
2019-04-28T18:30:44.026Z,99.90
2019-04-28T18:33:16.966Z,99.90
2019-04-28T18:35:47.840Z,99.90
2019-04-28T18:38:34.733Z,99.90
2019-04-28T18:41:12.041Z,99.90
2019-04-28T18:43:58.459Z,99.90
2019-04-28T18:46:28.800Z,99.90
2019-04-28T18:48:57.631Z,99.90
2019-04-28T18:51:26.173Z,99.90
2019-04-28T18:53:56.250Z,99.90
2019-04-28T18:56:24.621Z,99.90
2019-04-28T18:58:53.225Z,99.90
2019-04-28T19:01:23.780Z,99.90
2019-04-28T19:09:42.958Z,99.90
2019-04-28T19:15:06.263Z,99.90
2019-04-28T19:20:41.840Z,99.90
2019-04-28T19:23:15.621Z,99.90
2019-04-28T19:26:42.219Z,99.90
2019-04-28T19:28:22.036Z,99.90
2019-04-28T19:31:05.369Z,99.90
2019-04-28T19:36:27.756Z,99.90
2019-04-28T19:39:03.966Z,99.90
2019-04-28T19:41:35.696Z,99.90
2019-04-28T19:44:04.163Z,99.90
2019-04-28T19:49:30.604Z,99.90
2019-04-28T19:51:59.487Z,99.90
2019-04-28T19:54:29.608Z,99.90
2019-04-28T19:57:16.761Z,99.90
2019-04-28T20:03:03.398Z,99.90
2019-04-28T20:05:40.262Z,99.90
2019-04-28T20:08:19.058Z,99.90
2019-04-28T20:10:51.059Z,99.90
2019-04-28T20:13:21.970Z,99.90
2019-04-28T20:15:56.057Z,99.90
2019-04-28T20:18:29.689Z,99.90
2019-04-28T20:21:09.872Z,99.90
2019-04-28T20:23:49.854Z,99.90
2019-04-28T20:26:29.204Z,99.90
2019-04-28T20:28:58.763Z,99.90
2019-04-28T20:31:27.216Z,99.90
2019-04-28T20:33:59.600Z,99.90
2019-04-28T20:36:33.219Z,99.90
2019-04-28T20:39:18.424Z,99.90
2019-04-28T20:41:48.019Z,99.90
2019-04-28T20:44:19.536Z,99.90
2019-04-28T20:46:48.444Z,99.90
2019-04-28T20:49:22.115Z,99.90
2019-04-28T20:51:51.071Z,99.90
2019-04-28T20:54:19.705Z,99.90
2019-04-28T21:00:04.004Z,99.90
2019-04-28T21:02:32.770Z,99.90
2019-04-28T21:05:04.273Z,99.90
2019-04-28T21:07:43.995Z,99.90
2019-04-28T21:10:12.665Z,99.90
2019-04-28T21:12:41.442Z,99.90
2019-04-28T21:15:10.680Z,99.90
2019-04-28T21:17:39.083Z,99.90
2019-04-28T21:20:08.079Z,99.90
2019-04-28T21:22:36.762Z,99.90
2019-04-28T21:25:09.283Z,99.90
2019-04-28T21:27:41.476Z,99.90
2019-04-28T21:30:10.291Z,99.90
2019-04-28T21:32:39.047Z,99.90
2019-04-28T21:35:08.106Z,99.90
2019-04-28T21:37:36.581Z,99.90
2019-04-28T21:40:10.715Z,99.90
2019-04-28T21:42:52.775Z,99.90
2019-04-28T21:45:23.097Z,99.90
2019-04-28T21:47:51.467Z,99.90
2019-04-28T21:50:19.869Z,99.90
2019-04-28T21:52:48.267Z,99.90
2019-04-28T21:55:16.987Z,99.90
2019-04-28T21:57:47.212Z,99.90
2019-04-28T22:00:18.387Z,99.90
2019-04-28T22:02:46.871Z,99.90
2019-04-28T22:05:15.447Z,99.90
2019-04-28T22:07:43.871Z,99.90
2019-04-28T22:10:12.314Z,99.90
2019-04-28T22:12:40.942Z,99.90
2019-04-28T22:15:09.572Z,99.90
2019-04-28T22:17:38.146Z,99.90
2019-04-28T22:20:08.005Z,99.90
2019-04-28T22:22:36.389Z,99.90
2019-04-28T22:25:08.218Z,99.90
2019-04-28T22:27:38.222Z,99.90
2019-04-28T22:30:07.867Z,99.90
2019-04-28T22:32:36.355Z,99.90
2019-04-28T22:35:05.516Z,99.90
2019-04-28T22:37:33.982Z,99.90
2019-04-28T22:40:02.518Z,99.90
2019-04-28T22:42:31.225Z,99.90
2019-04-28T22:44:59.804Z,99.90
2019-04-28T22:47:28.508Z,99.90
2019-04-28T22:49:57.175Z,99.90
2019-04-28T22:52:25.839Z,99.90
2019-04-28T22:54:55.885Z,99.90
2019-04-28T22:57:26.084Z,99.90
2019-04-28T22:59:56.156Z,99.90
2019-04-28T23:02:29.612Z,99.90
2019-04-28T23:05:00.077Z,99.90
2019-04-28T23:07:28.642Z,99.90
2019-04-28T23:09:57.057Z,99.90
2019-04-28T23:12:25.458Z,99.90
2019-04-28T23:14:54.114Z,99.90
2019-04-28T23:17:23.286Z,99.90
2019-04-28T23:19:51.934Z,99.90
2019-04-28T23:22:24.891Z,99.90
2019-04-28T23:24:53.369Z,99.90
2019-04-28T23:27:22.019Z,99.90
2019-04-28T23:29:50.461Z,99.90
2019-04-28T23:32:18.934Z,99.90
2019-04-28T23:34:47.415Z,99.90
2019-04-28T23:37:15.877Z,99.90
2019-04-28T23:39:44.275Z,99.90
2019-04-28T23:42:17.146Z,99.90
2019-04-28T23:44:45.757Z,99.90
2019-04-28T23:47:15.172Z,99.90
2019-04-28T23:49:43.566Z,99.90
2019-04-28T23:52:30.085Z,99.90
2019-04-28T23:55:01.193Z,99.90
2019-04-28T23:57:29.866Z,99.90
2019-04-28T23:59:58.318Z,99.90
